Home > Products > Valid Products > MTR

000
SAUS43 KABR 181101
MTR8D3
METAR K8D3 181056Z AUTO 00000KT 06/06 A2998 RMK AO1 SLP150 T00560056





000
SAUS43 KABR 181001
MTR8D3
METAR K8D3 180956Z AUTO 00000KT 06/06 A2999 RMK AO1 SLP150 T00560056





000
SAUS43 KABR 180901
MTR8D3
METAR K8D3 180856Z AUTO 00000KT 07/06 A2999 RMK AO1 SLP151 T00670061
52001





000
SAUS43 KABR 180801
MTR8D3
METAR K8D3 180756Z AUTO 35003KT 07/06 A2999 RMK AO1 SLP150 T00670056





000
SAUS43 KABR 180701
MTR8D3
METAR K8D3 180656Z AUTO 32003KT 07/07 A2999 RMK AO1 SLP151 T00720067





000
SAUS43 KABR 180602
MTR8D3
METAR K8D3 180556Z AUTO 00000KT 07/07 A2999 RMK AO1 SLP151 T00720067
10183 20072 402440067 50001





000
SAUS43 KABR 180501
MTR8D3
METAR K8D3 180456Z AUTO 33003KT 08/08 A2999 RMK AO1 SLP151 T00830078





000
SAUS43 KABR 180401
MTR8D3
METAR K8D3 180356Z AUTO 29003KT 11/09 A3000 RMK AO1 SLP153 T01060094





000
SAUS43 KABR 180301
MTR8D3
METAR K8D3 180256Z AUTO 34003KT 11/10 A2999 RMK AO1 SLP151 T01110100
51012





000
SAUS43 KABR 180201
MTR8D3
METAR K8D3 180156Z AUTO 00000KT 12/11 A2998 RMK AO1 SLP151 T01170106





000
SAUS43 KABR 180101
MTR8D3
METAR K8D3 180056Z AUTO 00000KT 13/12 A2996 RMK AO1 SLP147 T01330117





000
SAUS43 KABR 180001
MTR8D3
METAR K8D3 172356Z AUTO 08003KT 19/13 A2995 RMK AO1 SLP138 T01890128
10244 20189 53004





000
SAUS43 KABR 172301
MTR8D3
METAR K8D3 172256Z AUTO 07004KT 23/12 A2994 RMK AO1 SLP131 T02330117





000
SAUS43 KABR 172202
MTR8D3
METAR K8D3 172156Z AUTO 06007KT 24/11 A2994 RMK AO1 SLP127 T02390111





000
SAUS43 KABR 172101
MTR8D3
METAR K8D3 172056Z AUTO 23/11 A2994 RMK AO1 SLP128 T02330111 55002





000
SAUS43 KABR 172001
MTR8D3
METAR K8D3 171956Z AUTO 06009KT 23/12 A2994 RMK AO1 SLP130 T02330117





000
SAUS43 KABR 171901
MTR8D3
METAR K8D3 171856Z AUTO VRB05KT 23/11 A2994 RMK AO1 SLP130 T02280111





000
SAUS43 KABR 171801
MTR8D3
METAR K8D3 171756Z AUTO 02008KT 22/11 A2995 RMK AO1 SLP132 T02170111
10222 20067 50005





000
SAUS43 KABR 171701
MTR8D3
METAR K8D3 171656Z AUTO 02011KT 21/12 A2995 RMK AO1 SLP133 T02110122





000
SAUS43 KABR 171601
MTR8D3
METAR K8D3 171556Z AUTO 01010KT 19/12 A2994 RMK AO1 SLP130 T01940122





000
SAUS43 KABR 171501
MTR8D3
METAR K8D3 171456Z AUTO 03007KT 17/13 A2993 RMK AO1 SLP129 T01670128
51010





000
SAUS43 KABR 171401
MTR8D3
METAR K8D3 171356Z AUTO 00000KT 13/12 A2992 RMK AO1 SLP128 T01280117





000
SAUS43 KABR 171301
MTR8D3
METAR K8D3 171256Z AUTO 00000KT 09/09 A2991 RMK AO1 SLP127 T00890089





000
SAUS43 KABR 171201
MTR8D3
METAR K8D3 171156Z AUTO 03003KT 09/09 A2990 RMK AO1 SLP122 7////
T00940089 10133 20089 53004





000
SAUS43 KABR 171101
MTR8D3
METAR K8D3 171056Z AUTO 25004KT 11/10 A2989 RMK AO1 SLP114 T01060100





000
SAUS43 KABR 171001
MTR8D3
METAR K8D3 170956Z AUTO 00000KT 12/11 A2989 RMK AO1 SLP112 T01220106





000
SAUS43 KABR 170901
MTR8D3
METAR K8D3 170856Z AUTO 22004KT 12/11 A2989 RMK AO1 SLP111 T01220106
58006





000
SAUS43 KABR 170801
MTR8D3
METAR K8D3 170756Z AUTO 14004KT 09/09 A2990 RMK AO1 SLP118 T00940089





000
SAUS43 KABR 170701
MTR8D3
METAR K8D3 170656Z AUTO 00000KT 10/09 A2990 RMK AO1 SLP118 T01000094





000
SAUS43 KABR 170601
MTR8D3
METAR K8D3 170556Z AUTO 15005KT 12/11 A2991 RMK AO1 SLP119 T01220111
10189 20111 402280061 58007





000
SAUS43 KABR 170501
MTR8D3
METAR K8D3 170456Z AUTO 18003KT 13/12 A2991 RMK AO1 SLP122 T01280117





000
SAUS43 KABR 170401
MTR8D3
METAR K8D3 170356Z AUTO 20004KT 14/12 A2992 RMK AO1 SLP125 T01440122





000
SAUS43 KABR 170401
MTR8D3
METAR K8D3 170356Z AUTO 20004KT 14/12 A2992 RMK AO1 SLP125 T01440122





000
SAUS43 KABR 170301
MTR8D3
METAR K8D3 170256Z AUTO 20004KT 16/12 A2993 RMK AO1 SLP127 T01560122
55002





000
SAUS43 KABR 170201
MTR8D3
METAR K8D3 170156Z AUTO 16004KT 17/12 A2992 RMK AO1 SLP127 T01670117





000
SAUS43 KABR 170101
MTR8D3
METAR K8D3 170056Z AUTO 16006KT 18/11 A2992 RMK AO1 SLP127 T01780106





000
SAUS43 KABR 170001
MTR8D3
METAR K8D3 162356Z AUTO 17006KT 19/10 A2993 RMK AO1 SLP131 T01890100
10228 20189 56009





000
SAUS43 KABR 162301
MTR8D3
METAR K8D3 162256Z AUTO 16009KT 21/09 A2993 RMK AO1 SLP130 T02060094





000
SAUS43 KABR 162201
MTR8D3
METAR K8D3 162156Z AUTO 18008KT 21/09 A2994 RMK AO1 SLP135 T02110094





000
SAUS43 KABR 162101
MTR8D3
METAR K8D3 162056Z AUTO 21009G20KT 23/09 A2996 RMK AO1 SLP139
T02280089 56020





000
SAUS43 KABR 162001
MTR8D3
METAR K8D3 161956Z AUTO 20008KT 21/08 A2998 RMK AO1 SLP145 T02110078





000
SAUS43 KABR 161902
MTR8D3
METAR K8D3 161856Z AUTO 20009G14KT 150V230 22/08 A3000 RMK AO1
SLP151 T02170083





000
SAUS43 KABR 161801
MTR8D3
METAR K8D3 161756Z AUTO 18011G17KT 21/07 A3002 RMK AO1 SLP164 6////
T02110072 10211 20094 58017





000
SAUS43 KABR 161702
MTR8D3
METAR K8D3 161656Z AUTO 22010KT 20/05 A3005 RMK AO1 SLP173 T02000050





000
SAUS43 KABR 161601
MTR8D3
METAR K8D3 161556Z AUTO 24010KT 18/06 A3006 RMK AO1 SLP179 T01780061





000
SAUS43 KABR 161501
MTR8D3
METAR K8D3 161456Z AUTO 16/06 A3008 RMK AO1 SLP185 6//// T01610056
56012 PNO $





000
SAUS43 KABR 161401
MTR8D3
METAR K8D3 161356Z AUTO 24011KT 14/04 A3009 RMK AO1 SLP190 T01390044





000
SAUS43 KABR 161301
MTR8D3
METAR K8D3 161256Z AUTO 24006KT 11/04 A3010 RMK AO1 SLP195 T01060044





000
SAUS43 KABR 161201
MTR8D3
METAR K8D3 161156Z AUTO 24013KT 11/04 A3011 RMK AO1 SLP195 T01060039
10106 20061 56009





000
SAUS43 KABR 161101
MTR8D3
METAR K8D3 161056Z AUTO 24008KT 10/04 A3012 RMK AO1 SLP196 T01000039





000
SAUS43 KABR 161001
MTR8D3
METAR K8D3 160956Z AUTO 23007KT 08/04 A3013 RMK AO1 SLP200 T00830039





000
SAUS43 KABR 160901
MTR8D3
METAR K8D3 160856Z AUTO 23007KT 09/04 A3014 RMK AO1 SLP204 T00940039
58010





000
SAUS43 KABR 160801
MTR8D3
METAR K8D3 160756Z AUTO 24010KT 11/03 A3015 RMK AO1 SLP208 T01060033





000
SAUS43 KABR 160701
MTR8D3
METAR K8D3 160656Z AUTO 24010KT 09/04 A3016 RMK AO1 SLP212 T00940039





000
SAUS43 KABR 160602
MTR8D3
METAR K8D3 160556Z AUTO 22005KT 06/03 A3017 RMK AO1 SLP217 T00610028
10161 20050 401830050 58004





000
SAUS43 KABR 160501
MTR8D3
METAR K8D3 160456Z AUTO 21006KT 06/03 A3018 RMK AO1 SLP221 T00610028





000
SAUS43 KABR 160401
MTR8D3
METAR K8D3 160356Z AUTO 22005KT 06/03 A3018 RMK AO1 SLP223 T00610033





000
SAUS43 KABR 160301
MTR8D3
METAR K8D3 160256Z AUTO 23005KT 06/04 A3018 RMK AO1 SLP225 T00610039
56002





000
SAUS43 KABR 160201
MTR8D3
METAR K8D3 160156Z AUTO 23005KT 07/04 A3018 RMK AO1 SLP226 T00720044





000
SAUS43 KABR 160101
MTR8D3
METAR K8D3 160056Z AUTO 23004KT 10/05 A3018 RMK AO1 SLP225 T01000050





000
SAUS43 KABR 160001
MTR8D3
METAR K8D3 152356Z AUTO 31003KT 16/03 A3019 RMK AO1 SLP224 T01610033
10183 20161 56006





000
SAUS43 KABR 152301
MTR8D3
METAR K8D3 152256Z AUTO 33008KT 18/02 A3020 RMK AO1 SLP225 T01780017





000
SAUS43 KABR 152201
MTR8D3
METAR K8D3 152156Z AUTO 28004KT 17/M01 A3020 RMK AO1 SLP227
T01721006





000
SAUS43 KABR 152101
MTR8D3
METAR K8D3 152056Z AUTO 18/M01 A3021 RMK AO1 SLP228 T01781006 58016





000
SAUS43 KABR 152001
MTR8D3
METAR K8D3 151956Z AUTO 05004KT 17/M01 A3023 RMK AO1 SLP235
T01721006





000
SAUS43 KABR 151902
MTR8D3
METAR K8D3 151856Z AUTO 04006KT 17/M01 A3025 RMK AO1 SLP242
T01721006





000
SAUS43 KABR 151801
MTR8D3
METAR K8D3 151756Z AUTO 01010G17KT 17/M01 A3026 RMK AO1 SLP246
T01671011 10167 20067 58001





000
SAUS43 KABR 151701
MTR8D3
METAR K8D3 151656Z AUTO 36007KT 310V020 16/M01 A3026 RMK AO1 SLP248
T01561006





000
SAUS43 KABR 151602
MTR8D3
METAR K8D3 151556Z AUTO 02011KT 14/02 A3027 RMK AO1 SLP251 T01440022





000
SAUS43 KABR 151502
MTR8D3
METAR K8D3 151456Z AUTO 34008KT 13/06 A3026 RMK AO1 SLP251 T01280056
51012





000
SAUS43 KABR 151401
MTR8D3
METAR K8D3 151356Z AUTO 34008KT 11/06 A3025 RMK AO1 SLP248 T01060061





000
SAUS43 KABR 151301
MTR8D3
METAR K8D3 151256Z AUTO 33005KT 07/06 A3024 RMK AO1 SLP245 T00720056





000
SAUS43 KABR 151201
MTR8D3
METAR K8D3 151156Z AUTO 33004KT 07/06 A3022 RMK AO1 SLP238 T00720061
10083 20067 53015





    US Dept of Commerce
    National Oceanic and Atmospheric Administration
    National Weather Service
    1325 East West Highway
    Silver Spring, MD 20910
    Page Author: NWS Internet Services Team
Disclaimer
Information Quality
Credits
Glossary
Privacy Policy
Freedom of Information Act (FOIA)
About Us
Career Opportunities